PHDTS BGKK-BGSF
Flight info
| Callsign | PHDTS |
|---|---|
| Flight time | 2h 28m |
| Altitude | 10000 |
| Route | DA UW28 GANGI |
| Aircraft | DA42/L-SBDGRY/S |
Departure
| Time | 2026-05-08 18:05 |
|---|---|
| Airport | Kulusuk Airport (BGKK) |
Arrival
| Time | 2026-05-08 20:34 |
|---|---|
| Airport | Kangerlussuaq International Airport (BGSF) |
| Time | Latitude | Longitude | Altitude | Speed | Heading |
|---|---|---|---|---|---|
| 2026-05-08 17:41 | 65.57418 | -37.13477 | 108 ft | 0 kts | 262° |
| 2026-05-08 17:42 | 65.57416 | -37.13495 | 108 ft | 0 kts | 220° |
| 2026-05-08 17:44 | 65.57411 | -37.13506 | 108 ft | 0 kts | 172° |
| 2026-05-08 17:46 | 65.57408 | -37.13505 | 108 ft | 0 kts | 172° |
| 2026-05-08 17:46 | 65.57416 | -37.13526 | 108 ft | 0 kts | 155° |
| 2026-05-08 17:55 | 65.57402 | -37.13515 | 108 ft | 3 kts | 168° |
| 2026-05-08 17:55 | 65.57400 | -37.13513 | 108 ft | 0 kts | 161° |
| 2026-05-08 17:55 | 65.57399 | -37.13513 | 108 ft | 1 kts | 161° |
| 2026-05-08 17:56 | 65.57389 | -37.13508 | 108 ft | 0 kts | 158° |
| 2026-05-08 17:56 | 65.57381 | -37.13497 | 108 ft | 0 kts | 144° |
| 2026-05-08 17:56 | 65.57377 | -37.13491 | 108 ft | 0 kts | 143° |
| 2026-05-08 17:59 | 65.57360 | -37.13463 | 120 ft | 6 kts | 153° |
| 2026-05-08 17:59 | 65.57343 | -37.13444 | 117 ft | 1 kts | 151° |
| 2026-05-08 17:59 | 65.57341 | -37.13443 | 115 ft | 0 kts | 159° |
| 2026-05-08 18:02 | 65.57334 | -37.13434 | 107 ft | 2 kts | 145° |
| 2026-05-08 18:02 | 65.57326 | -37.13423 | 107 ft | 0 kts | 150° |
| 2026-05-08 18:03 | 65.57312 | -37.13401 | 107 ft | 3 kts | 136° |
| 2026-05-08 18:03 | 65.57300 | -37.13364 | 108 ft | 3 kts | 100° |
| 2026-05-08 18:04 | 65.57299 | -37.13356 | 108 ft | 0 kts | 89° |
| 2026-05-08 18:05 | 65.57333 | -37.12838 | 106 ft | 56 kts | 80° |
| 2026-05-08 18:05 | 65.57373 | -37.11835 | 296 ft | 59 kts | 84° |
| 2026-05-08 18:05 | 65.57483 | -37.10893 | 513 ft | 65 kts | 44° |
| 2026-05-08 18:05 | 65.57962 | -37.11172 | 718 ft | 89 kts | 320° |
| 2026-05-08 18:06 | 65.58244 | -37.12584 | 886 ft | 105 kts | 284° |
| 2026-05-08 18:06 | 65.58117 | -37.14331 | 1039 ft | 112 kts | 248° |
| 2026-05-08 18:06 | 65.57796 | -37.16143 | 1078 ft | 124 kts | 247° |
| 2026-05-08 18:06 | 65.57463 | -37.18073 | 1383 ft | 122 kts | 250° |
| 2026-05-08 18:07 | 65.57158 | -37.19987 | 1691 ft | 122 kts | 257° |
| 2026-05-08 18:07 | 65.57218 | -37.21977 | 2012 ft | 118 kts | 296° |
| 2026-05-08 18:07 | 65.57499 | -37.23855 | 2309 ft | 119 kts | 296° |
| 2026-05-08 18:07 | 65.57785 | -37.25738 | 2593 ft | 120 kts | 296° |
| 2026-05-08 18:08 | 65.58079 | -37.27610 | 2904 ft | 116 kts | 292° |
| 2026-05-08 18:08 | 65.58352 | -37.29430 | 3185 ft | 116 kts | 292° |
| 2026-05-08 18:08 | 65.58630 | -37.31238 | 3499 ft | 113 kts | 291° |
| 2026-05-08 18:08 | 65.58903 | -37.33018 | 3782 ft | 113 kts | 291° |
| 2026-05-08 18:09 | 65.59174 | -37.34788 | 4079 ft | 111 kts | 290° |
| 2026-05-08 18:09 | 65.59441 | -37.36535 | 4368 ft | 110 kts | 289° |
| 2026-05-08 18:09 | 65.59706 | -37.38267 | 4668 ft | 109 kts | 289° |
| 2026-05-08 18:09 | 65.59965 | -37.39969 | 4967 ft | 108 kts | 289° |
| 2026-05-08 18:10 | 65.60224 | -37.41667 | 5244 ft | 108 kts | 288° |
| 2026-05-08 18:10 | 65.60482 | -37.43353 | 5545 ft | 105 kts | 287° |
| 2026-05-08 18:10 | 65.60732 | -37.45009 | 5820 ft | 105 kts | 286° |
| 2026-05-08 18:10 | 65.60993 | -37.46717 | 6055 ft | 110 kts | 289° |
| 2026-05-08 18:11 | 65.61252 | -37.48427 | 6365 ft | 109 kts | 288° |
| 2026-05-08 18:11 | 65.61512 | -37.50143 | 6697 ft | 108 kts | 288° |
| 2026-05-08 18:11 | 65.61772 | -37.51846 | 6977 ft | 108 kts | 287° |
| 2026-05-08 18:11 | 65.62028 | -37.53549 | 7250 ft | 108 kts | 288° |
| 2026-05-08 18:12 | 65.62286 | -37.55250 | 7535 ft | 107 kts | 288° |
| 2026-05-08 18:12 | 65.62547 | -37.56942 | 7830 ft | 108 kts | 292° |
| 2026-05-08 18:12 | 65.62874 | -37.58564 | 8104 ft | 107 kts | 292° |
| 2026-05-08 18:12 | 65.63189 | -37.60205 | 8372 ft | 107 kts | 291° |
| 2026-05-08 18:13 | 65.63484 | -37.61871 | 8645 ft | 107 kts | 289° |
| 2026-05-08 18:13 | 65.63756 | -37.63546 | 8919 ft | 107 kts | 288° |
| 2026-05-08 18:13 | 65.64018 | -37.65234 | 9215 ft | 107 kts | 288° |
| 2026-05-08 18:13 | 65.64275 | -37.66922 | 9491 ft | 107 kts | 287° |
| 2026-05-08 18:14 | 65.64529 | -37.68611 | 9767 ft | 107 kts | 287° |
| 2026-05-08 18:14 | 65.64782 | -37.70300 | 10049 ft | 107 kts | 287° |
| 2026-05-08 18:14 | 65.65032 | -37.71970 | 10309 ft | 108 kts | 287° |
| 2026-05-08 18:14 | 65.65306 | -37.73826 | 10330 ft | 124 kts | 288° |
| 2026-05-08 18:15 | 65.65608 | -37.75838 | 10326 ft | 129 kts | 288° |
| 2026-05-08 18:15 | 65.65913 | -37.77910 | 10332 ft | 132 kts | 288° |
| 2026-05-08 18:15 | 65.66228 | -37.80005 | 10334 ft | 133 kts | 287° |
| 2026-05-08 18:15 | 65.66542 | -37.82138 | 10327 ft | 135 kts | 287° |
| 2026-05-08 18:16 | 65.66860 | -37.84301 | 10328 ft | 137 kts | 287° |
| 2026-05-08 18:16 | 65.67185 | -37.86497 | 10330 ft | 139 kts | 287° |
| 2026-05-08 18:16 | 65.67513 | -37.88715 | 10329 ft | 140 kts | 287° |
| 2026-05-08 18:16 | 65.67837 | -37.90931 | 10330 ft | 139 kts | 287° |
| 2026-05-08 18:17 | 65.68164 | -37.93154 | 10326 ft | 139 kts | 287° |
| 2026-05-08 18:17 | 65.68488 | -37.95356 | 10326 ft | 138 kts | 287° |
| 2026-05-08 18:17 | 65.68810 | -37.97553 | 10326 ft | 138 kts | 287° |
| 2026-05-08 18:17 | 65.69130 | -37.99737 | 10324 ft | 137 kts | 287° |
| 2026-05-08 18:18 | 65.69454 | -38.01958 | 10329 ft | 142 kts | 287° |
| 2026-05-08 18:18 | 65.69790 | -38.04258 | 10329 ft | 147 kts | 287° |
| 2026-05-08 18:18 | 65.70130 | -38.06584 | 10332 ft | 149 kts | 287° |
| 2026-05-08 18:18 | 65.70476 | -38.08889 | 10330 ft | 144 kts | 287° |
| 2026-05-08 18:19 | 65.70806 | -38.11225 | 10331 ft | 148 kts | 287° |
| 2026-05-08 18:19 | 65.71149 | -38.13605 | 10332 ft | 150 kts | 287° |
| 2026-05-08 18:19 | 65.71498 | -38.16000 | 10330 ft | 150 kts | 287° |
| 2026-05-08 18:19 | 65.71842 | -38.18368 | 10331 ft | 147 kts | 287° |
| 2026-05-08 18:20 | 65.72181 | -38.20687 | 10322 ft | 144 kts | 288° |
| 2026-05-08 18:20 | 65.72510 | -38.22965 | 10324 ft | 142 kts | 287° |
| 2026-05-08 18:20 | 65.72830 | -38.25190 | 10325 ft | 142 kts | 287° |
| 2026-05-08 18:20 | 65.73157 | -38.27446 | 10323 ft | 140 kts | 287° |
| 2026-05-08 18:21 | 65.73478 | -38.29673 | 10320 ft | 139 kts | 287° |
| 2026-05-08 18:21 | 65.73794 | -38.31874 | 10313 ft | 137 kts | 287° |
| 2026-05-08 18:21 | 65.74109 | -38.34065 | 10322 ft | 139 kts | 287° |
| 2026-05-08 18:21 | 65.74426 | -38.36267 | 10326 ft | 138 kts | 287° |
| 2026-05-08 18:22 | 65.74753 | -38.38449 | 10322 ft | 135 kts | 289° |
| 2026-05-08 18:22 | 65.75041 | -38.40651 | 10326 ft | 137 kts | 286° |
| 2026-05-08 18:22 | 65.75364 | -38.42885 | 10327 ft | 144 kts | 287° |
| 2026-05-08 18:22 | 65.75701 | -38.45207 | 10319 ft | 148 kts | 287° |
| 2026-05-08 18:23 | 65.76044 | -38.47592 | 10321 ft | 150 kts | 287° |
| 2026-05-08 18:23 | 65.76390 | -38.50014 | 10320 ft | 152 kts | 287° |
| 2026-05-08 18:23 | 65.76736 | -38.52456 | 10320 ft | 153 kts | 287° |
| 2026-05-08 18:23 | 65.77084 | -38.54897 | 10313 ft | 151 kts | 287° |
| 2026-05-08 18:24 | 65.77417 | -38.57249 | 10311 ft | 146 kts | 287° |
| 2026-05-08 18:24 | 65.77746 | -38.59555 | 10312 ft | 143 kts | 287° |
| 2026-05-08 18:24 | 65.78067 | -38.61824 | 10308 ft | 140 kts | 287° |
| 2026-05-08 18:24 | 65.78382 | -38.64063 | 10307 ft | 139 kts | 287° |
| 2026-05-08 18:25 | 65.78695 | -38.66277 | 10308 ft | 138 kts | 287° |
| 2026-05-08 18:25 | 65.79005 | -38.68481 | 10306 ft | 137 kts | 287° |
| 2026-05-08 18:25 | 65.79317 | -38.70704 | 10310 ft | 141 kts | 287° |
| 2026-05-08 18:25 | 65.79639 | -38.72998 | 10310 ft | 144 kts | 287° |
| 2026-05-08 18:26 | 65.79966 | -38.75328 | 10313 ft | 146 kts | 287° |
| 2026-05-08 18:26 | 65.80297 | -38.77679 | 10312 ft | 147 kts | 287° |
| 2026-05-08 18:26 | 65.80628 | -38.80041 | 10314 ft | 147 kts | 287° |
| 2026-05-08 18:26 | 65.80959 | -38.82408 | 10311 ft | 148 kts | 287° |
| 2026-05-08 18:27 | 65.81289 | -38.84777 | 10308 ft | 148 kts | 287° |
| 2026-05-08 18:27 | 65.81509 | -38.86351 | 10309 ft | 148 kts | 287° |
| 2026-05-08 18:27 | 65.81953 | -38.89536 | 10310 ft | 148 kts | 287° |
| 2026-05-08 18:27 | 65.82285 | -38.91925 | 10296 ft | 149 kts | 287° |
| 2026-05-08 18:28 | 65.82618 | -38.94320 | 10296 ft | 149 kts | 287° |
| 2026-05-08 18:28 | 65.82950 | -38.96715 | 10296 ft | 149 kts | 287° |
| 2026-05-08 18:28 | 65.83282 | -38.99107 | 10294 ft | 149 kts | 287° |
| 2026-05-08 18:28 | 65.83612 | -39.01499 | 10294 ft | 148 kts | 287° |
| 2026-05-08 18:29 | 65.83941 | -39.03883 | 10297 ft | 148 kts | 287° |
| 2026-05-08 18:29 | 65.84270 | -39.06264 | 10299 ft | 146 kts | 287° |
| 2026-05-08 18:29 | 65.84581 | -39.08499 | 10295 ft | 132 kts | 287° |
| 2026-05-08 18:29 | 65.84872 | -39.10634 | 10301 ft | 138 kts | 286° |
| 2026-05-08 18:30 | 65.85180 | -39.12890 | 10303 ft | 142 kts | 287° |
| 2026-05-08 18:30 | 65.85497 | -39.15201 | 10304 ft | 145 kts | 287° |
| 2026-05-08 18:30 | 65.85820 | -39.17553 | 10304 ft | 147 kts | 287° |
| 2026-05-08 18:30 | 65.86146 | -39.19929 | 10304 ft | 148 kts | 287° |
| 2026-05-08 18:31 | 65.86474 | -39.22335 | 10305 ft | 150 kts | 287° |
| 2026-05-08 18:31 | 65.86806 | -39.24762 | 10305 ft | 150 kts | 287° |
| 2026-05-08 18:31 | 65.87137 | -39.27189 | 10305 ft | 151 kts | 287° |
| 2026-05-08 18:31 | 65.87469 | -39.29630 | 10297 ft | 153 kts | 286° |
| 2026-05-08 18:32 | 65.87801 | -39.32071 | 10295 ft | 153 kts | 286° |
| 2026-05-08 18:32 | 65.88137 | -39.34551 | 10298 ft | 154 kts | 286° |
| 2026-05-08 18:32 | 65.88473 | -39.37033 | 10299 ft | 154 kts | 286° |
| 2026-05-08 18:32 | 65.88809 | -39.39514 | 10296 ft | 153 kts | 286° |
| 2026-05-08 18:33 | 65.89144 | -39.41996 | 10297 ft | 153 kts | 286° |
| 2026-05-08 18:33 | 65.89478 | -39.44471 | 10296 ft | 153 kts | 286° |
| 2026-05-08 18:33 | 65.89813 | -39.46955 | 10296 ft | 153 kts | 286° |
| 2026-05-08 18:33 | 65.90145 | -39.49427 | 10296 ft | 153 kts | 286° |
| 2026-05-08 18:34 | 65.90479 | -39.51915 | 10294 ft | 153 kts | 286° |
| 2026-05-08 18:34 | 65.90812 | -39.54396 | 10294 ft | 153 kts | 286° |
| 2026-05-08 18:34 | 65.91140 | -39.56849 | 10294 ft | 153 kts | 286° |
| 2026-05-08 18:34 | 65.91472 | -39.59334 | 10295 ft | 153 kts | 286° |
| 2026-05-08 18:35 | 65.91804 | -39.61818 | 10294 ft | 153 kts | 286° |
| 2026-05-08 18:35 | 65.92135 | -39.64296 | 10294 ft | 153 kts | 286° |
| 2026-05-08 18:35 | 65.92464 | -39.66771 | 10273 ft | 153 kts | 286° |
| 2026-05-08 18:35 | 65.92795 | -39.69264 | 10273 ft | 153 kts | 286° |
| 2026-05-08 18:36 | 65.93125 | -39.71746 | 10272 ft | 153 kts | 286° |
| 2026-05-08 18:36 | 65.93454 | -39.74228 | 10271 ft | 153 kts | 286° |
| 2026-05-08 18:36 | 65.93783 | -39.76714 | 10270 ft | 153 kts | 286° |
| 2026-05-08 18:36 | 65.94106 | -39.79163 | 10271 ft | 153 kts | 286° |
| 2026-05-08 18:37 | 65.94435 | -39.81648 | 10275 ft | 153 kts | 286° |
| 2026-05-08 18:37 | 65.94761 | -39.84129 | 10275 ft | 153 kts | 285° |
| 2026-05-08 18:37 | 65.95088 | -39.86611 | 10273 ft | 153 kts | 286° |
| 2026-05-08 18:37 | 65.95415 | -39.89102 | 10274 ft | 153 kts | 286° |
| 2026-05-08 18:38 | 65.95636 | -39.90786 | 10273 ft | 153 kts | 285° |
| 2026-05-08 18:38 | 65.95958 | -39.93244 | 10275 ft | 153 kts | 285° |
| 2026-05-08 18:38 | 65.96283 | -39.95731 | 10274 ft | 153 kts | 285° |
| 2026-05-08 18:38 | 65.96610 | -39.98229 | 10274 ft | 153 kts | 285° |
| 2026-05-08 18:39 | 65.96935 | -40.00720 | 10274 ft | 153 kts | 285° |
| 2026-05-08 18:39 | 65.97263 | -40.03221 | 10257 ft | 154 kts | 285° |
| 2026-05-08 18:39 | 65.97591 | -40.05723 | 10220 ft | 154 kts | 285° |
| 2026-05-08 18:39 | 65.97919 | -40.08233 | 10221 ft | 154 kts | 285° |
| 2026-05-08 18:40 | 65.98242 | -40.10711 | 10219 ft | 154 kts | 285° |
| 2026-05-08 18:40 | 65.98570 | -40.13224 | 10220 ft | 155 kts | 285° |
| 2026-05-08 18:40 | 65.98896 | -40.15734 | 10221 ft | 155 kts | 285° |
| 2026-05-08 18:40 | 65.99225 | -40.18261 | 10222 ft | 155 kts | 285° |
| 2026-05-08 18:41 | 65.99552 | -40.20781 | 10219 ft | 154 kts | 285° |
| 2026-05-08 18:41 | 65.99878 | -40.23300 | 10221 ft | 154 kts | 285° |
| 2026-05-08 18:41 | 66.00203 | -40.25815 | 10222 ft | 154 kts | 285° |
| 2026-05-08 18:41 | 66.00528 | -40.28332 | 10220 ft | 154 kts | 285° |
| 2026-05-08 18:42 | 66.00852 | -40.30846 | 10221 ft | 154 kts | 285° |
| 2026-05-08 18:42 | 66.01172 | -40.33330 | 10212 ft | 154 kts | 285° |
| 2026-05-08 18:42 | 66.01496 | -40.35849 | 10211 ft | 154 kts | 285° |
| 2026-05-08 18:42 | 66.01818 | -40.38364 | 10212 ft | 154 kts | 285° |
| 2026-05-08 18:43 | 66.02141 | -40.40880 | 10212 ft | 154 kts | 285° |
| 2026-05-08 18:43 | 66.02462 | -40.43391 | 10170 ft | 154 kts | 285° |
| 2026-05-08 18:43 | 66.02784 | -40.45911 | 10170 ft | 154 kts | 285° |
| 2026-05-08 18:43 | 66.03104 | -40.48424 | 10168 ft | 154 kts | 285° |
| 2026-05-08 18:44 | 66.03424 | -40.50937 | 10167 ft | 154 kts | 285° |
| 2026-05-08 18:44 | 66.03744 | -40.53455 | 10170 ft | 154 kts | 285° |
| 2026-05-08 18:44 | 66.04060 | -40.55943 | 10170 ft | 154 kts | 285° |
| 2026-05-08 18:44 | 66.04380 | -40.58466 | 10172 ft | 154 kts | 285° |
| 2026-05-08 18:45 | 66.04700 | -40.60992 | 10168 ft | 154 kts | 285° |
| 2026-05-08 18:45 | 66.05020 | -40.63521 | 10168 ft | 154 kts | 285° |
| 2026-05-08 18:45 | 66.05339 | -40.66051 | 10167 ft | 154 kts | 285° |
| 2026-05-08 18:45 | 66.05656 | -40.68573 | 10167 ft | 154 kts | 285° |
| 2026-05-08 18:46 | 66.05973 | -40.71093 | 10167 ft | 154 kts | 285° |
| 2026-05-08 18:46 | 66.06290 | -40.73615 | 10167 ft | 154 kts | 285° |
| 2026-05-08 18:46 | 66.06607 | -40.76136 | 10167 ft | 154 kts | 285° |
| 2026-05-08 18:46 | 66.06922 | -40.78653 | 10167 ft | 154 kts | 285° |
| 2026-05-08 18:47 | 66.07237 | -40.81178 | 10167 ft | 154 kts | 285° |
| 2026-05-08 18:47 | 66.07552 | -40.83704 | 10169 ft | 154 kts | 285° |
| 2026-05-08 18:47 | 66.07867 | -40.86228 | 10169 ft | 154 kts | 285° |
| 2026-05-08 18:47 | 66.08179 | -40.88732 | 10169 ft | 154 kts | 285° |
| 2026-05-08 18:48 | 66.08493 | -40.91263 | 10168 ft | 154 kts | 285° |
| 2026-05-08 18:48 | 66.08807 | -40.93790 | 10168 ft | 154 kts | 285° |
| 2026-05-08 18:48 | 66.09121 | -40.96329 | 10167 ft | 154 kts | 285° |
| 2026-05-08 18:48 | 66.09434 | -40.98860 | 10159 ft | 154 kts | 285° |
| 2026-05-08 18:49 | 66.09747 | -41.01395 | 10162 ft | 155 kts | 285° |
| 2026-05-08 18:49 | 66.10060 | -41.03937 | 10160 ft | 155 kts | 285° |
| 2026-05-08 18:49 | 66.10372 | -41.06473 | 10162 ft | 155 kts | 285° |
| 2026-05-08 18:49 | 66.10685 | -41.09015 | 10162 ft | 155 kts | 285° |
| 2026-05-08 18:50 | 66.10997 | -41.11559 | 10159 ft | 155 kts | 284° |
| 2026-05-08 18:50 | 66.11308 | -41.14095 | 10167 ft | 154 kts | 285° |
| 2026-05-08 18:50 | 66.11617 | -41.16626 | 10151 ft | 154 kts | 285° |
| 2026-05-08 18:50 | 66.11927 | -41.19162 | 10146 ft | 154 kts | 285° |
| 2026-05-08 18:51 | 66.12232 | -41.21663 | 10145 ft | 154 kts | 285° |
| 2026-05-08 18:51 | 66.12544 | -41.24227 | 10148 ft | 154 kts | 285° |
| 2026-05-08 18:51 | 66.12848 | -41.26734 | 10147 ft | 154 kts | 285° |
| 2026-05-08 18:51 | 66.13156 | -41.29269 | 10146 ft | 154 kts | 284° |
| 2026-05-08 18:52 | 66.13463 | -41.31800 | 10150 ft | 154 kts | 285° |
| 2026-05-08 18:52 | 66.13769 | -41.34329 | 10150 ft | 154 kts | 284° |
| 2026-05-08 18:52 | 66.14075 | -41.36865 | 10149 ft | 154 kts | 284° |
| 2026-05-08 18:52 | 66.14381 | -41.39407 | 10147 ft | 154 kts | 284° |
| 2026-05-08 18:53 | 66.14687 | -41.41945 | 10150 ft | 154 kts | 284° |
| 2026-05-08 18:53 | 66.14987 | -41.44447 | 10151 ft | 154 kts | 284° |
| 2026-05-08 18:53 | 66.15292 | -41.46986 | 10150 ft | 154 kts | 284° |
| 2026-05-08 18:53 | 66.15596 | -41.49522 | 10149 ft | 154 kts | 284° |
| 2026-05-08 18:54 | 66.15900 | -41.52061 | 10149 ft | 154 kts | 284° |
| 2026-05-08 18:54 | 66.16203 | -41.54603 | 10146 ft | 154 kts | 284° |
| 2026-05-08 18:54 | 66.16506 | -41.57144 | 10136 ft | 154 kts | 284° |
| 2026-05-08 18:54 | 66.16808 | -41.59684 | 10136 ft | 154 kts | 284° |
| 2026-05-08 18:55 | 66.17407 | -41.64776 | 10128 ft | 154 kts | 284° |
| 2026-05-08 18:55 | 66.17716 | -41.67315 | 10126 ft | 154 kts | 283° |
| 2026-05-08 18:55 | 66.18017 | -41.69856 | 10126 ft | 154 kts | 283° |
| 2026-05-08 18:56 | 66.18317 | -41.72402 | 10126 ft | 154 kts | 283° |
| 2026-05-08 18:56 | 66.18616 | -41.74948 | 10124 ft | 154 kts | 283° |
| 2026-05-08 18:56 | 66.18911 | -41.77463 | 10124 ft | 154 kts | 283° |
| 2026-05-08 18:56 | 66.19210 | -41.80007 | 10125 ft | 154 kts | 283° |
| 2026-05-08 18:57 | 66.19510 | -41.82565 | 10128 ft | 155 kts | 283° |
| 2026-05-08 18:57 | 66.19708 | -41.84257 | 10125 ft | 155 kts | 283° |
| 2026-05-08 18:57 | 66.20108 | -41.87680 | 10125 ft | 154 kts | 283° |
| 2026-05-08 18:57 | 66.20407 | -41.90237 | 10126 ft | 154 kts | 283° |
| 2026-05-08 18:58 | 66.20703 | -41.92780 | 10127 ft | 154 kts | 283° |
| 2026-05-08 18:58 | 66.21000 | -41.95332 | 10117 ft | 154 kts | 283° |
| 2026-05-08 18:58 | 66.21297 | -41.97884 | 10118 ft | 154 kts | 283° |
| 2026-05-08 18:58 | 66.21593 | -42.00443 | 10117 ft | 155 kts | 283° |
| 2026-05-08 18:59 | 66.21890 | -42.03006 | 10120 ft | 155 kts | 283° |
| 2026-05-08 18:59 | 66.22186 | -42.05571 | 10120 ft | 155 kts | 283° |
| 2026-05-08 18:59 | 66.22482 | -42.08129 | 10117 ft | 155 kts | 283° |
| 2026-05-08 18:59 | 66.22777 | -42.10693 | 10120 ft | 154 kts | 283° |
| 2026-05-08 19:00 | 66.23071 | -42.13250 | 10131 ft | 154 kts | 283° |
| 2026-05-08 19:00 | 66.23365 | -42.15813 | 10129 ft | 155 kts | 282° |
| 2026-05-08 19:00 | 66.23658 | -42.18375 | 10131 ft | 155 kts | 282° |
| 2026-05-08 19:00 | 66.23952 | -42.20941 | 10130 ft | 155 kts | 283° |
| 2026-05-08 19:01 | 66.24243 | -42.23483 | 10130 ft | 155 kts | 282° |
| 2026-05-08 19:01 | 66.24536 | -42.26058 | 10132 ft | 155 kts | 282° |
| 2026-05-08 19:01 | 66.24830 | -42.28635 | 10131 ft | 155 kts | 282° |
| 2026-05-08 19:01 | 66.25122 | -42.31209 | 10129 ft | 155 kts | 282° |
| 2026-05-08 19:02 | 66.25414 | -42.33787 | 10117 ft | 155 kts | 282° |
| 2026-05-08 19:02 | 66.25704 | -42.36347 | 10116 ft | 154 kts | 282° |
| 2026-05-08 19:02 | 66.25993 | -42.38901 | 10116 ft | 153 kts | 282° |
| 2026-05-08 19:02 | 66.26276 | -42.41404 | 10117 ft | 153 kts | 282° |
| 2026-05-08 19:03 | 66.26562 | -42.43945 | 10115 ft | 152 kts | 282° |
| 2026-05-08 19:03 | 66.26847 | -42.46478 | 10115 ft | 152 kts | 282° |
| 2026-05-08 19:03 | 66.27132 | -42.49014 | 10116 ft | 152 kts | 282° |
| 2026-05-08 19:03 | 66.27416 | -42.51549 | 10116 ft | 152 kts | 282° |
| 2026-05-08 19:04 | 66.27700 | -42.54084 | 10114 ft | 152 kts | 282° |
| 2026-05-08 19:04 | 66.27982 | -42.56614 | 10115 ft | 152 kts | 282° |
| 2026-05-08 19:04 | 66.28265 | -42.59148 | 10117 ft | 152 kts | 282° |
| 2026-05-08 19:04 | 66.28548 | -42.61686 | 10116 ft | 152 kts | 282° |
| 2026-05-08 19:05 | 66.28830 | -42.64225 | 10116 ft | 153 kts | 282° |
| 2026-05-08 19:05 | 66.29110 | -42.66741 | 10115 ft | 153 kts | 282° |
| 2026-05-08 19:05 | 66.29391 | -42.69281 | 10116 ft | 153 kts | 282° |
| 2026-05-08 19:05 | 66.29673 | -42.71825 | 10101 ft | 152 kts | 282° |
| 2026-05-08 19:06 | 66.29953 | -42.74365 | 10102 ft | 152 kts | 282° |
| 2026-05-08 19:06 | 66.30233 | -42.76904 | 10101 ft | 152 kts | 282° |
| 2026-05-08 19:06 | 66.30512 | -42.79442 | 10105 ft | 152 kts | 282° |
| 2026-05-08 19:06 | 66.30792 | -42.81987 | 10101 ft | 153 kts | 282° |
| 2026-05-08 19:07 | 66.31072 | -42.84535 | 10104 ft | 153 kts | 282° |
| 2026-05-08 19:07 | 66.31351 | -42.87089 | 10101 ft | 153 kts | 282° |
| 2026-05-08 19:07 | 66.31626 | -42.89601 | 10101 ft | 153 kts | 282° |
| 2026-05-08 19:07 | 66.31904 | -42.92151 | 10101 ft | 152 kts | 282° |
| 2026-05-08 19:08 | 66.32181 | -42.94693 | 10095 ft | 152 kts | 282° |
| 2026-05-08 19:08 | 66.32458 | -42.97236 | 10094 ft | 152 kts | 282° |
| 2026-05-08 19:08 | 66.32734 | -42.99785 | 10094 ft | 152 kts | 282° |
| 2026-05-08 19:08 | 66.33010 | -43.02333 | 10093 ft | 152 kts | 282° |
| 2026-05-08 19:09 | 66.33286 | -43.04882 | 10090 ft | 153 kts | 282° |
| 2026-05-08 19:09 | 66.33562 | -43.07437 | 10094 ft | 153 kts | 282° |
| 2026-05-08 19:09 | 66.33837 | -43.09997 | 10080 ft | 153 kts | 280° |
| 2026-05-08 19:09 | 66.34112 | -43.12558 | 10078 ft | 153 kts | 281° |
| 2026-05-08 19:10 | 66.34385 | -43.15070 | 10080 ft | 152 kts | 281° |
| 2026-05-08 19:10 | 66.34660 | -43.17635 | 10079 ft | 151 kts | 281° |
| 2026-05-08 19:10 | 66.34928 | -43.20136 | 10080 ft | 151 kts | 281° |
| 2026-05-08 19:10 | 66.35198 | -43.22670 | 10080 ft | 151 kts | 281° |
| 2026-05-08 19:11 | 66.35468 | -43.25202 | 10077 ft | 151 kts | 280° |
| 2026-05-08 19:11 | 66.35738 | -43.27730 | 10077 ft | 151 kts | 280° |
| 2026-05-08 19:11 | 66.36007 | -43.30260 | 10077 ft | 151 kts | 280° |
| 2026-05-08 19:11 | 66.36274 | -43.32781 | 10077 ft | 150 kts | 280° |
| 2026-05-08 19:12 | 66.36540 | -43.35291 | 10071 ft | 150 kts | 280° |
| 2026-05-08 19:12 | 66.36806 | -43.37802 | 10071 ft | 150 kts | 280° |
| 2026-05-08 19:12 | 66.37071 | -43.40313 | 10071 ft | 150 kts | 280° |
| 2026-05-08 19:12 | 66.37336 | -43.42826 | 10071 ft | 149 kts | 280° |
| 2026-05-08 19:13 | 66.37596 | -43.45298 | 10074 ft | 150 kts | 280° |
| 2026-05-08 19:13 | 66.37860 | -43.47813 | 10074 ft | 150 kts | 280° |
| 2026-05-08 19:13 | 66.38125 | -43.50338 | 10064 ft | 150 kts | 280° |
| 2026-05-08 19:13 | 66.38388 | -43.52858 | 10064 ft | 150 kts | 280° |
| 2026-05-08 19:14 | 66.38652 | -43.55382 | 10061 ft | 150 kts | 280° |
| 2026-05-08 19:14 | 66.38915 | -43.57904 | 10061 ft | 150 kts | 280° |
| 2026-05-08 19:14 | 66.39178 | -43.60429 | 10050 ft | 151 kts | 280° |
| 2026-05-08 19:14 | 66.39442 | -43.62961 | 10050 ft | 151 kts | 280° |
| 2026-05-08 19:15 | 66.39704 | -43.65496 | 10050 ft | 151 kts | 280° |
| 2026-05-08 19:15 | 66.39967 | -43.68030 | 10050 ft | 150 kts | 280° |
| 2026-05-08 19:15 | 66.40229 | -43.70561 | 10050 ft | 150 kts | 280° |
| 2026-05-08 19:15 | 66.40490 | -43.73088 | 10049 ft | 150 kts | 280° |
| 2026-05-08 19:16 | 66.40750 | -43.75615 | 10046 ft | 150 kts | 280° |
| 2026-05-08 19:16 | 66.41010 | -43.78137 | 10047 ft | 150 kts | 280° |
| 2026-05-08 19:16 | 66.41269 | -43.80669 | 10047 ft | 151 kts | 280° |
| 2026-05-08 19:16 | 66.41526 | -43.83171 | 10047 ft | 151 kts | 279° |
| 2026-05-08 19:17 | 66.41786 | -43.85722 | 10047 ft | 151 kts | 280° |
| 2026-05-08 19:17 | 66.42046 | -43.88265 | 10040 ft | 151 kts | 279° |
| 2026-05-08 19:17 | 66.42305 | -43.90802 | 10040 ft | 151 kts | 280° |
| 2026-05-08 19:17 | 66.42563 | -43.93336 | 10040 ft | 150 kts | 280° |
| 2026-05-08 19:18 | 66.42819 | -43.95859 | 10040 ft | 150 kts | 280° |
| 2026-05-08 19:18 | 66.43076 | -43.98390 | 10042 ft | 150 kts | 280° |
| 2026-05-08 19:18 | 66.43332 | -44.00926 | 10042 ft | 151 kts | 280° |
| 2026-05-08 19:18 | 66.43589 | -44.03467 | 10041 ft | 151 kts | 280° |
| 2026-05-08 19:19 | 66.43846 | -44.06013 | 10044 ft | 151 kts | 279° |
| 2026-05-08 19:19 | 66.44102 | -44.08561 | 10048 ft | 151 kts | 279° |
| 2026-05-08 19:19 | 66.44358 | -44.11105 | 10048 ft | 151 kts | 279° |
| 2026-05-08 19:19 | 66.44613 | -44.13648 | 10047 ft | 150 kts | 279° |
| 2026-05-08 19:20 | 66.44867 | -44.16185 | 10048 ft | 150 kts | 279° |
| 2026-05-08 19:20 | 66.44952 | -44.17035 | 10048 ft | 150 kts | 279° |
| 2026-05-08 19:20 | 66.45373 | -44.21253 | 10048 ft | 150 kts | 279° |
| 2026-05-08 19:20 | 66.45625 | -44.23794 | 10048 ft | 151 kts | 279° |
| 2026-05-08 19:21 | 66.45878 | -44.26340 | 10035 ft | 151 kts | 279° |
| 2026-05-08 19:21 | 66.46131 | -44.28892 | 10029 ft | 151 kts | 279° |
| 2026-05-08 19:21 | 66.46384 | -44.31443 | 10029 ft | 151 kts | 279° |
| 2026-05-08 19:21 | 66.46637 | -44.33994 | 10029 ft | 151 kts | 279° |
| 2026-05-08 19:22 | 66.46884 | -44.36509 | 10029 ft | 151 kts | 279° |
| 2026-05-08 19:22 | 66.47135 | -44.39057 | 10029 ft | 151 kts | 279° |
| 2026-05-08 19:22 | 66.47386 | -44.41604 | 10030 ft | 151 kts | 279° |
| 2026-05-08 19:22 | 66.47636 | -44.44156 | 10029 ft | 151 kts | 279° |
| 2026-05-08 19:23 | 66.47886 | -44.46714 | 10029 ft | 151 kts | 279° |
| 2026-05-08 19:23 | 66.48052 | -44.48408 | 10029 ft | 151 kts | 279° |
| 2026-05-08 19:23 | 66.48302 | -44.50968 | 10030 ft | 152 kts | 279° |
| 2026-05-08 19:23 | 66.48553 | -44.53546 | 10030 ft | 152 kts | 279° |
| 2026-05-08 19:24 | 66.48803 | -44.56119 | 10029 ft | 152 kts | 279° |
| 2026-05-08 19:24 | 66.49053 | -44.58687 | 10029 ft | 151 kts | 279° |
| 2026-05-08 19:24 | 66.49301 | -44.61253 | 10030 ft | 151 kts | 279° |
| 2026-05-08 19:24 | 66.49550 | -44.63821 | 10030 ft | 151 kts | 279° |
| 2026-05-08 19:25 | 66.49794 | -44.66352 | 10024 ft | 151 kts | 279° |
| 2026-05-08 19:25 | 66.50041 | -44.68919 | 10024 ft | 151 kts | 279° |
| 2026-05-08 19:25 | 66.50288 | -44.71480 | 10025 ft | 152 kts | 278° |
| 2026-05-08 19:25 | 66.50535 | -44.74065 | 10025 ft | 152 kts | 278° |
| 2026-05-08 19:26 | 66.50782 | -44.76644 | 10019 ft | 152 kts | 278° |
| 2026-05-08 19:26 | 66.51029 | -44.79224 | 10018 ft | 152 kts | 278° |
| 2026-05-08 19:26 | 66.51274 | -44.81797 | 10018 ft | 152 kts | 278° |
| 2026-05-08 19:26 | 66.51519 | -44.84366 | 10018 ft | 152 kts | 278° |
| 2026-05-08 19:27 | 66.51763 | -44.86939 | 10023 ft | 151 kts | 278° |
| 2026-05-08 19:27 | 66.52007 | -44.89510 | 10024 ft | 152 kts | 278° |
| 2026-05-08 19:27 | 66.52248 | -44.92089 | 10012 ft | 153 kts | 276° |
| 2026-05-08 19:27 | 66.52494 | -44.94694 | 10013 ft | 154 kts | 278° |
| 2026-05-08 19:28 | 66.52747 | -44.97312 | 10013 ft | 155 kts | 277° |
| 2026-05-08 19:28 | 66.52995 | -44.99941 | 10014 ft | 155 kts | 277° |
| 2026-05-08 19:28 | 66.53242 | -45.02581 | 10013 ft | 155 kts | 277° |
| 2026-05-08 19:28 | 66.53488 | -45.05212 | 10017 ft | 155 kts | 277° |
| 2026-05-08 19:29 | 66.53734 | -45.07847 | 10001 ft | 154 kts | 276° |
| 2026-05-08 19:29 | 66.53978 | -45.10464 | 10001 ft | 154 kts | 276° |
| 2026-05-08 19:29 | 66.54222 | -45.13080 | 10001 ft | 154 kts | 277° |
| 2026-05-08 19:29 | 66.54465 | -45.15696 | 10001 ft | 154 kts | 276° |
| 2026-05-08 19:30 | 66.54708 | -45.18312 | 10005 ft | 154 kts | 276° |
| 2026-05-08 19:30 | 66.54951 | -45.20936 | 10005 ft | 155 kts | 276° |
| 2026-05-08 19:30 | 66.55194 | -45.23570 | 10005 ft | 155 kts | 276° |
| 2026-05-08 19:30 | 66.55434 | -45.26172 | 10004 ft | 155 kts | 277° |
| 2026-05-08 19:31 | 66.55677 | -45.28800 | 10001 ft | 154 kts | 276° |
| 2026-05-08 19:31 | 66.55918 | -45.31421 | 10001 ft | 154 kts | 276° |
| 2026-05-08 19:31 | 66.56157 | -45.34037 | 10001 ft | 154 kts | 276° |
| 2026-05-08 19:31 | 66.56396 | -45.36651 | 10002 ft | 154 kts | 276° |
| 2026-05-08 19:32 | 66.56636 | -45.39280 | 10002 ft | 154 kts | 276° |
| 2026-05-08 19:32 | 66.56876 | -45.41910 | 10002 ft | 154 kts | 276° |
| 2026-05-08 19:32 | 66.57115 | -45.44537 | 10001 ft | 154 kts | 276° |
| 2026-05-08 19:32 | 66.57354 | -45.47164 | 9996 ft | 154 kts | 276° |
| 2026-05-08 19:33 | 66.57591 | -45.49779 | 10000 ft | 153 kts | 276° |
| 2026-05-08 19:33 | 66.57827 | -45.52392 | 9999 ft | 153 kts | 276° |
| 2026-05-08 19:33 | 66.58060 | -45.54964 | 9999 ft | 152 kts | 276° |
| 2026-05-08 19:33 | 66.58293 | -45.57557 | 9998 ft | 152 kts | 276° |
| 2026-05-08 19:34 | 66.58525 | -45.60137 | 9981 ft | 151 kts | 276° |
| 2026-05-08 19:34 | 66.58755 | -45.62696 | 9980 ft | 150 kts | 276° |
| 2026-05-08 19:34 | 66.58983 | -45.65250 | 9980 ft | 149 kts | 276° |
| 2026-05-08 19:34 | 66.59210 | -45.67796 | 9980 ft | 149 kts | 276° |
| 2026-05-08 19:35 | 66.59437 | -45.70341 | 9986 ft | 149 kts | 276° |
| 2026-05-08 19:35 | 66.59664 | -45.72893 | 9986 ft | 149 kts | 276° |
| 2026-05-08 19:35 | 66.59891 | -45.75448 | 9985 ft | 149 kts | 276° |
| 2026-05-08 19:35 | 66.60117 | -45.78000 | 9985 ft | 149 kts | 276° |
| 2026-05-08 19:36 | 66.60340 | -45.80520 | 9982 ft | 149 kts | 276° |
| 2026-05-08 19:36 | 66.60565 | -45.83073 | 9982 ft | 150 kts | 276° |
| 2026-05-08 19:36 | 66.60791 | -45.85636 | 9975 ft | 150 kts | 276° |
| 2026-05-08 19:36 | 66.61017 | -45.88204 | 9975 ft | 150 kts | 276° |
| 2026-05-08 19:37 | 66.61243 | -45.90778 | 9975 ft | 151 kts | 276° |
| 2026-05-08 19:37 | 66.61469 | -45.93365 | 9976 ft | 152 kts | 276° |
| 2026-05-08 19:37 | 66.61696 | -45.95966 | 9976 ft | 152 kts | 276° |
| 2026-05-08 19:37 | 66.61924 | -45.98577 | 9977 ft | 153 kts | 276° |
| 2026-05-08 19:38 | 66.62152 | -46.01207 | 9983 ft | 154 kts | 276° |
| 2026-05-08 19:38 | 66.62382 | -46.03845 | 9982 ft | 154 kts | 276° |
| 2026-05-08 19:38 | 66.62610 | -46.06501 | 9983 ft | 156 kts | 275° |
| 2026-05-08 19:38 | 66.62843 | -46.09172 | 9982 ft | 156 kts | 276° |
| 2026-05-08 19:39 | 66.63081 | -46.11942 | 9799 ft | 166 kts | 276° |
| 2026-05-08 19:39 | 66.63323 | -46.14739 | 9730 ft | 165 kts | 276° |
| 2026-05-08 19:39 | 66.63566 | -46.17558 | 9647 ft | 165 kts | 276° |
| 2026-05-08 19:39 | 66.63807 | -46.20380 | 9560 ft | 164 kts | 276° |
| 2026-05-08 19:40 | 66.64048 | -46.23206 | 9463 ft | 164 kts | 276° |
| 2026-05-08 19:40 | 66.64289 | -46.26029 | 9372 ft | 165 kts | 276° |
| 2026-05-08 19:40 | 66.64530 | -46.28860 | 9289 ft | 165 kts | 276° |
| 2026-05-08 19:40 | 66.64770 | -46.31692 | 9210 ft | 165 kts | 276° |
| 2026-05-08 19:41 | 66.65010 | -46.34525 | 9130 ft | 165 kts | 276° |
| 2026-05-08 19:41 | 66.65250 | -46.37359 | 9049 ft | 165 kts | 276° |
| 2026-05-08 19:41 | 66.65486 | -46.40165 | 8964 ft | 165 kts | 276° |
| 2026-05-08 19:41 | 66.65722 | -46.42956 | 8965 ft | 160 kts | 276° |
| 2026-05-08 19:42 | 66.65952 | -46.45693 | 8964 ft | 159 kts | 276° |
| 2026-05-08 19:42 | 66.66179 | -46.48414 | 8963 ft | 158 kts | 275° |
| 2026-05-08 19:42 | 66.66404 | -46.51118 | 8962 ft | 157 kts | 276° |
| 2026-05-08 19:42 | 66.66630 | -46.53824 | 8965 ft | 158 kts | 276° |
| 2026-05-08 19:43 | 66.66855 | -46.56539 | 8964 ft | 158 kts | 276° |
| 2026-05-08 19:43 | 66.67080 | -46.59252 | 8964 ft | 158 kts | 276° |
| 2026-05-08 19:43 | 66.67303 | -46.61976 | 8966 ft | 159 kts | 275° |
| 2026-05-08 19:43 | 66.67532 | -46.64720 | 8966 ft | 160 kts | 275° |
| 2026-05-08 19:44 | 66.67759 | -46.67445 | 8959 ft | 160 kts | 275° |
| 2026-05-08 19:44 | 66.67983 | -46.70181 | 8959 ft | 160 kts | 275° |
| 2026-05-08 19:44 | 66.68209 | -46.72927 | 8960 ft | 160 kts | 275° |
| 2026-05-08 19:44 | 66.68433 | -46.75674 | 8960 ft | 160 kts | 275° |
| 2026-05-08 19:45 | 66.68658 | -46.78427 | 8959 ft | 160 kts | 275° |
| 2026-05-08 19:45 | 66.68882 | -46.81186 | 8959 ft | 160 kts | 275° |
| 2026-05-08 19:45 | 66.69107 | -46.83940 | 8959 ft | 160 kts | 275° |
| 2026-05-08 19:45 | 66.69331 | -46.86706 | 8959 ft | 160 kts | 275° |
| 2026-05-08 19:46 | 66.69553 | -46.89460 | 8960 ft | 160 kts | 275° |
| 2026-05-08 19:46 | 66.69776 | -46.92216 | 8960 ft | 160 kts | 275° |
| 2026-05-08 19:46 | 66.70218 | -46.97712 | 8953 ft | 160 kts | 275° |
| 2026-05-08 19:47 | 66.70439 | -47.00468 | 8958 ft | 160 kts | 275° |
| 2026-05-08 19:47 | 66.70660 | -47.03233 | 8957 ft | 161 kts | 275° |
| 2026-05-08 19:47 | 66.70881 | -47.06002 | 8951 ft | 162 kts | 274° |
| 2026-05-08 19:47 | 66.71103 | -47.08791 | 8949 ft | 162 kts | 274° |
| 2026-05-08 19:48 | 66.71324 | -47.11574 | 8955 ft | 162 kts | 274° |
| 2026-05-08 19:48 | 66.71542 | -47.14330 | 8956 ft | 162 kts | 274° |
| 2026-05-08 19:48 | 66.71764 | -47.17131 | 8954 ft | 162 kts | 274° |
| 2026-05-08 19:48 | 66.71985 | -47.19935 | 8954 ft | 162 kts | 274° |
| 2026-05-08 19:49 | 66.72206 | -47.22737 | 8950 ft | 162 kts | 274° |
| 2026-05-08 19:49 | 66.72425 | -47.25536 | 8950 ft | 162 kts | 273° |
| 2026-05-08 19:49 | 66.72645 | -47.28337 | 8949 ft | 162 kts | 273° |
| 2026-05-08 19:49 | 66.72863 | -47.31136 | 8948 ft | 162 kts | 273° |
| 2026-05-08 19:50 | 66.73081 | -47.33937 | 8953 ft | 162 kts | 273° |
| 2026-05-08 19:50 | 66.73298 | -47.36734 | 8953 ft | 162 kts | 273° |
| 2026-05-08 19:50 | 66.73515 | -47.39530 | 8952 ft | 162 kts | 273° |
| 2026-05-08 19:50 | 66.73730 | -47.42306 | 8955 ft | 163 kts | 273° |
| 2026-05-08 19:51 | 66.73947 | -47.45126 | 8955 ft | 163 kts | 273° |
| 2026-05-08 19:51 | 66.74164 | -47.47943 | 8947 ft | 163 kts | 273° |
| 2026-05-08 19:51 | 66.74380 | -47.50758 | 8946 ft | 163 kts | 273° |
| 2026-05-08 19:51 | 66.74595 | -47.53569 | 8946 ft | 163 kts | 273° |
| 2026-05-08 19:52 | 66.74810 | -47.56384 | 8943 ft | 163 kts | 273° |
| 2026-05-08 19:52 | 66.75024 | -47.59190 | 8941 ft | 163 kts | 273° |
| 2026-05-08 19:52 | 66.75238 | -47.62008 | 8941 ft | 162 kts | 273° |
| 2026-05-08 19:52 | 66.75451 | -47.64813 | 8936 ft | 163 kts | 273° |
| 2026-05-08 19:53 | 66.75664 | -47.67639 | 8933 ft | 163 kts | 273° |
| 2026-05-08 19:53 | 66.75876 | -47.70449 | 8936 ft | 163 kts | 273° |
| 2026-05-08 19:53 | 66.76085 | -47.73224 | 8933 ft | 162 kts | 273° |
| 2026-05-08 19:53 | 66.76296 | -47.76044 | 8937 ft | 163 kts | 273° |
| 2026-05-08 19:54 | 66.76507 | -47.78864 | 8938 ft | 163 kts | 273° |
| 2026-05-08 19:54 | 66.76717 | -47.81675 | 8937 ft | 162 kts | 273° |
| 2026-05-08 19:54 | 66.76927 | -47.84484 | 8940 ft | 162 kts | 273° |
| 2026-05-08 19:54 | 66.77135 | -47.87295 | 8930 ft | 163 kts | 272° |
| 2026-05-08 19:55 | 66.77343 | -47.90110 | 8928 ft | 162 kts | 272° |
| 2026-05-08 19:55 | 66.77552 | -47.92928 | 8927 ft | 162 kts | 272° |
| 2026-05-08 19:55 | 66.77760 | -47.95748 | 8928 ft | 163 kts | 272° |
| 2026-05-08 19:55 | 66.77967 | -47.98573 | 8929 ft | 163 kts | 273° |
| 2026-05-08 19:56 | 66.78172 | -48.01363 | 8928 ft | 163 kts | 273° |
| 2026-05-08 19:56 | 66.78378 | -48.04188 | 8928 ft | 163 kts | 273° |
| 2026-05-08 19:56 | 66.78585 | -48.07024 | 8932 ft | 165 kts | 272° |
| 2026-05-08 19:56 | 66.78793 | -48.09882 | 8930 ft | 165 kts | 272° |
| 2026-05-08 19:57 | 66.79000 | -48.12733 | 8927 ft | 164 kts | 272° |
| 2026-05-08 19:57 | 66.79207 | -48.15587 | 8927 ft | 164 kts | 272° |
| 2026-05-08 19:57 | 66.79412 | -48.18439 | 8927 ft | 165 kts | 272° |
| 2026-05-08 19:57 | 66.79618 | -48.21300 | 8928 ft | 165 kts | 272° |
| 2026-05-08 19:58 | 66.79823 | -48.24161 | 8931 ft | 165 kts | 272° |
| 2026-05-08 19:58 | 66.80029 | -48.27034 | 8925 ft | 165 kts | 272° |
| 2026-05-08 19:58 | 66.80233 | -48.29899 | 8925 ft | 165 kts | 272° |
| 2026-05-08 19:58 | 66.80437 | -48.32795 | 8920 ft | 168 kts | 271° |
| 2026-05-08 19:59 | 66.80644 | -48.35687 | 8917 ft | 169 kts | 271° |
| 2026-05-08 19:59 | 66.80854 | -48.38632 | 8916 ft | 169 kts | 271° |
| 2026-05-08 19:59 | 66.81062 | -48.41571 | 8917 ft | 169 kts | 271° |
| 2026-05-08 19:59 | 66.81269 | -48.44518 | 8916 ft | 170 kts | 271° |
| 2026-05-08 20:00 | 66.81476 | -48.47463 | 8920 ft | 170 kts | 271° |
| 2026-05-08 20:00 | 66.81683 | -48.50417 | 8920 ft | 170 kts | 271° |
| 2026-05-08 20:00 | 66.81889 | -48.53371 | 8921 ft | 170 kts | 271° |
| 2026-05-08 20:00 | 66.82095 | -48.56334 | 8920 ft | 170 kts | 271° |
| 2026-05-08 20:01 | 66.82300 | -48.59290 | 8920 ft | 170 kts | 271° |
| 2026-05-08 20:01 | 66.82505 | -48.62252 | 8919 ft | 170 kts | 271° |
| 2026-05-08 20:01 | 66.82709 | -48.65202 | 8919 ft | 170 kts | 271° |
| 2026-05-08 20:01 | 66.82912 | -48.68158 | 8912 ft | 170 kts | 271° |
| 2026-05-08 20:02 | 66.83115 | -48.71114 | 8911 ft | 170 kts | 271° |
| 2026-05-08 20:02 | 66.83316 | -48.74062 | 8911 ft | 170 kts | 271° |
| 2026-05-08 20:02 | 66.83518 | -48.77011 | 8911 ft | 170 kts | 271° |
| 2026-05-08 20:02 | 66.83719 | -48.79969 | 8911 ft | 170 kts | 271° |
| 2026-05-08 20:03 | 66.83920 | -48.82930 | 8911 ft | 170 kts | 271° |
| 2026-05-08 20:03 | 66.84117 | -48.85844 | 8911 ft | 169 kts | 271° |
| 2026-05-08 20:03 | 66.84316 | -48.88797 | 8911 ft | 169 kts | 271° |
| 2026-05-08 20:03 | 66.84514 | -48.91748 | 8912 ft | 170 kts | 271° |
| 2026-05-08 20:04 | 66.84713 | -48.94713 | 8913 ft | 170 kts | 271° |
| 2026-05-08 20:04 | 66.84905 | -48.97580 | 8912 ft | 170 kts | 271° |
| 2026-05-08 20:04 | 66.85103 | -49.00543 | 8900 ft | 170 kts | 271° |
| 2026-05-08 20:04 | 66.85299 | -49.03502 | 8901 ft | 170 kts | 271° |
| 2026-05-08 20:05 | 66.85496 | -49.06463 | 8901 ft | 170 kts | 271° |
| 2026-05-08 20:05 | 66.85690 | -49.09426 | 8878 ft | 171 kts | 271° |
| 2026-05-08 20:05 | 66.85887 | -49.12402 | 8878 ft | 170 kts | 271° |
| 2026-05-08 20:05 | 66.86082 | -49.15365 | 8879 ft | 170 kts | 272° |
| 2026-05-08 20:06 | 66.86277 | -49.18346 | 8878 ft | 170 kts | 272° |
| 2026-05-08 20:06 | 66.86469 | -49.21284 | 8879 ft | 171 kts | 271° |
| 2026-05-08 20:06 | 66.86663 | -49.24261 | 8878 ft | 171 kts | 271° |
| 2026-05-08 20:06 | 66.86856 | -49.27235 | 8880 ft | 171 kts | 271° |
| 2026-05-08 20:07 | 66.87048 | -49.30222 | 8880 ft | 171 kts | 271° |
| 2026-05-08 20:07 | 66.87240 | -49.33205 | 8879 ft | 171 kts | 271° |
| 2026-05-08 20:07 | 66.87368 | -49.35189 | 8880 ft | 171 kts | 271° |
| 2026-05-08 20:07 | 66.87624 | -49.39183 | 8879 ft | 171 kts | 271° |
| 2026-05-08 20:08 | 66.87750 | -49.41158 | 8878 ft | 171 kts | 271° |
| 2026-05-08 20:08 | 66.87940 | -49.44136 | 8878 ft | 170 kts | 271° |
| 2026-05-08 20:08 | 66.88129 | -49.47111 | 8877 ft | 170 kts | 271° |
| 2026-05-08 20:08 | 66.88318 | -49.50079 | 8861 ft | 170 kts | 271° |
| 2026-05-08 20:09 | 66.88505 | -49.53044 | 8860 ft | 170 kts | 271° |
| 2026-05-08 20:09 | 66.88691 | -49.56001 | 8860 ft | 169 kts | 271° |
| 2026-05-08 20:09 | 66.88877 | -49.58969 | 8860 ft | 169 kts | 271° |
| 2026-05-08 20:09 | 66.89062 | -49.61936 | 8861 ft | 170 kts | 271° |
| 2026-05-08 20:10 | 66.89248 | -49.64915 | 8862 ft | 170 kts | 271° |
| 2026-05-08 20:10 | 66.89437 | -49.67896 | 8861 ft | 171 kts | 273° |
| 2026-05-08 20:10 | 66.89417 | -49.70783 | 8835 ft | 162 kts | 251° |
| 2026-05-08 20:10 | 66.89182 | -49.73587 | 8836 ft | 161 kts | 249° |
| 2026-05-08 20:11 | 66.88952 | -49.76394 | 8837 ft | 162 kts | 251° |
| 2026-05-08 20:11 | 66.88771 | -49.79239 | 8838 ft | 163 kts | 253° |
| 2026-05-08 20:11 | 66.88613 | -49.82102 | 8837 ft | 164 kts | 254° |
| 2026-05-08 20:11 | 66.88459 | -49.84976 | 8838 ft | 164 kts | 254° |
| 2026-05-08 20:12 | 66.88303 | -49.87841 | 8837 ft | 164 kts | 254° |
| 2026-05-08 20:12 | 66.88148 | -49.90708 | 8837 ft | 163 kts | 254° |
| 2026-05-08 20:12 | 66.87989 | -49.93580 | 8840 ft | 166 kts | 255° |
| 2026-05-08 20:12 | 66.87828 | -49.96505 | 8822 ft | 167 kts | 255° |
| 2026-05-08 20:13 | 66.87671 | -49.99402 | 8815 ft | 167 kts | 255° |
| 2026-05-08 20:13 | 66.87510 | -50.02308 | 8816 ft | 166 kts | 255° |
| 2026-05-08 20:13 | 66.87350 | -50.05209 | 8820 ft | 166 kts | 255° |
| 2026-05-08 20:13 | 66.87187 | -50.08119 | 8818 ft | 166 kts | 255° |
| 2026-05-08 20:14 | 66.87024 | -50.11025 | 8813 ft | 165 kts | 255° |
| 2026-05-08 20:14 | 66.86863 | -50.13898 | 8815 ft | 164 kts | 255° |
| 2026-05-08 20:14 | 66.86705 | -50.16755 | 8806 ft | 163 kts | 255° |
| 2026-05-08 20:14 | 66.86542 | -50.19614 | 8802 ft | 162 kts | 255° |
| 2026-05-08 20:15 | 66.86382 | -50.22426 | 8800 ft | 160 kts | 255° |
| 2026-05-08 20:15 | 66.86223 | -50.25224 | 8801 ft | 159 kts | 255° |
| 2026-05-08 20:15 | 66.86066 | -50.28005 | 8802 ft | 159 kts | 255° |
| 2026-05-08 20:15 | 66.85907 | -50.30778 | 8799 ft | 158 kts | 255° |
| 2026-05-08 20:16 | 66.85750 | -50.33495 | 8795 ft | 156 kts | 255° |
| 2026-05-08 20:16 | 66.85595 | -50.36209 | 8794 ft | 154 kts | 254° |
| 2026-05-08 20:16 | 66.85439 | -50.38891 | 8801 ft | 153 kts | 255° |
| 2026-05-08 20:16 | 66.85282 | -50.41603 | 8803 ft | 155 kts | 255° |
| 2026-05-08 20:17 | 66.85124 | -50.44337 | 8804 ft | 157 kts | 255° |
| 2026-05-08 20:17 | 66.84963 | -50.47090 | 8805 ft | 158 kts | 255° |
| 2026-05-08 20:17 | 66.84802 | -50.49854 | 8807 ft | 159 kts | 255° |
| 2026-05-08 20:17 | 66.84638 | -50.52636 | 8796 ft | 159 kts | 255° |
| 2026-05-08 20:18 | 66.84477 | -50.55409 | 8795 ft | 158 kts | 255° |
| 2026-05-08 20:18 | 66.84315 | -50.58160 | 8793 ft | 157 kts | 255° |
| 2026-05-08 20:18 | 66.84157 | -50.60865 | 8793 ft | 152 kts | 254° |
| 2026-05-08 20:18 | 66.83996 | -50.63547 | 8661 ft | 157 kts | 255° |
| 2026-05-08 20:19 | 66.83824 | -50.66377 | 8439 ft | 166 kts | 255° |
| 2026-05-08 20:19 | 66.83648 | -50.69328 | 8212 ft | 172 kts | 255° |
| 2026-05-08 20:19 | 66.83467 | -50.72359 | 7975 ft | 175 kts | 255° |
| 2026-05-08 20:19 | 66.83290 | -50.75380 | 7746 ft | 174 kts | 255° |
| 2026-05-08 20:20 | 66.83107 | -50.78421 | 7516 ft | 173 kts | 255° |
| 2026-05-08 20:20 | 66.82923 | -50.81443 | 7284 ft | 173 kts | 255° |
| 2026-05-08 20:20 | 66.82740 | -50.84449 | 7060 ft | 172 kts | 255° |
| 2026-05-08 20:20 | 66.82556 | -50.87451 | 6833 ft | 171 kts | 255° |
| 2026-05-08 20:21 | 66.82373 | -50.90462 | 6487 ft | 176 kts | 255° |
| 2026-05-08 20:21 | 66.82186 | -50.93537 | 6249 ft | 169 kts | 255° |
| 2026-05-08 20:21 | 66.82013 | -50.96370 | 6252 ft | 158 kts | 254° |
| 2026-05-08 20:21 | 66.81846 | -50.99068 | 6164 ft | 158 kts | 255° |
| 2026-05-08 20:22 | 66.81668 | -51.01895 | 5949 ft | 165 kts | 254° |
| 2026-05-08 20:22 | 66.81487 | -51.04787 | 5729 ft | 165 kts | 254° |
| 2026-05-08 20:22 | 66.81321 | -51.07629 | 5511 ft | 160 kts | 257° |
| 2026-05-08 20:22 | 66.81418 | -51.10446 | 5301 ft | 163 kts | 278° |
| 2026-05-08 20:23 | 66.81917 | -51.13076 | 5106 ft | 168 kts | 300° |
| 2026-05-08 20:23 | 66.82771 | -51.15104 | 4947 ft | 170 kts | 323° |
| 2026-05-08 20:23 | 66.83798 | -51.16546 | 4796 ft | 166 kts | 326° |
| 2026-05-08 20:23 | 66.84798 | -51.17955 | 4659 ft | 162 kts | 327° |
| 2026-05-08 20:24 | 66.85789 | -51.19343 | 4518 ft | 163 kts | 327° |
| 2026-05-08 20:24 | 66.86787 | -51.20730 | 4367 ft | 164 kts | 327° |
| 2026-05-08 20:24 | 66.87787 | -51.22078 | 4214 ft | 161 kts | 334° |
| 2026-05-08 20:24 | 66.88865 | -51.22546 | 4075 ft | 156 kts | 3° |
| 2026-05-08 20:25 | 66.89887 | -51.21851 | 3939 ft | 150 kts | 30° |
| 2026-05-08 20:25 | 66.90660 | -51.20294 | 3814 ft | 131 kts | 55° |
| 2026-05-08 20:25 | 66.91094 | -51.18568 | 3691 ft | 104 kts | 69° |
| 2026-05-08 20:25 | 66.91407 | -51.17166 | 3614 ft | 85 kts | 71° |
| 2026-05-08 20:26 | 66.91695 | -51.15838 | 3546 ft | 88 kts | 72° |
| 2026-05-08 20:26 | 66.91993 | -51.14453 | 3474 ft | 89 kts | 72° |
| 2026-05-08 20:26 | 66.92295 | -51.13037 | 3397 ft | 92 kts | 71° |
| 2026-05-08 20:26 | 66.92606 | -51.11590 | 3306 ft | 94 kts | 71° |
| 2026-05-08 20:27 | 66.92919 | -51.10129 | 3218 ft | 93 kts | 71° |
| 2026-05-08 20:27 | 66.93227 | -51.08698 | 3135 ft | 91 kts | 70° |
| 2026-05-08 20:27 | 66.93530 | -51.07285 | 3058 ft | 92 kts | 73° |
| 2026-05-08 20:27 | 66.93838 | -51.05842 | 2973 ft | 91 kts | 69° |
| 2026-05-08 20:28 | 66.94137 | -51.04430 | 2891 ft | 91 kts | 69° |
| 2026-05-08 20:28 | 66.94439 | -51.03026 | 2800 ft | 89 kts | 68° |
| 2026-05-08 20:28 | 66.94729 | -51.01700 | 2724 ft | 85 kts | 69° |
| 2026-05-08 20:28 | 66.95013 | -51.00380 | 2653 ft | 86 kts | 73° |
| 2026-05-08 20:29 | 66.95299 | -50.99048 | 2603 ft | 83 kts | 71° |
| 2026-05-08 20:29 | 66.95575 | -50.97770 | 2605 ft | 84 kts | 70° |
| 2026-05-08 20:29 | 66.95857 | -50.96442 | 2606 ft | 86 kts | 70° |
| 2026-05-08 20:29 | 66.96142 | -50.95088 | 2602 ft | 88 kts | 70° |
| 2026-05-08 20:30 | 66.96433 | -50.93718 | 2597 ft | 87 kts | 68° |
| 2026-05-08 20:30 | 66.96719 | -50.92380 | 2598 ft | 85 kts | 72° |
| 2026-05-08 20:30 | 66.97010 | -50.91006 | 2601 ft | 90 kts | 68° |
| 2026-05-08 20:30 | 66.97314 | -50.89549 | 2460 ft | 92 kts | 71° |
| 2026-05-08 20:31 | 66.97567 | -50.88109 | 2270 ft | 86 kts | 76° |
| 2026-05-08 20:31 | 66.97860 | -50.86763 | 2116 ft | 87 kts | 64° |
| 2026-05-08 20:31 | 66.98233 | -50.85428 | 1896 ft | 96 kts | 62° |
| 2026-05-08 20:31 | 66.98610 | -50.83841 | 1499 ft | 108 kts | 64° |
| 2026-05-08 20:32 | 66.98947 | -50.82082 | 1082 ft | 108 kts | 68° |
| 2026-05-08 20:32 | 66.99267 | -50.80437 | 931 ft | 99 kts | 64° |
| 2026-05-08 20:32 | 66.99597 | -50.78893 | 678 ft | 103 kts | 66° |
| 2026-05-08 20:32 | 66.99926 | -50.77327 | 454 ft | 98 kts | 63° |
| 2026-05-08 20:33 | 67.00238 | -50.75891 | 324 ft | 88 kts | 64° |
| 2026-05-08 20:33 | 67.00510 | -50.74529 | 206 ft | 85 kts | 62° |
| 2026-05-08 20:33 | 67.00794 | -50.73187 | 158 ft | 82 kts | 63° |
| 2026-05-08 20:33 | 67.01058 | -50.71944 | 172 ft | 74 kts | 63° |
| 2026-05-08 20:34 | 67.01218 | -50.71111 | 174 ft | 36 kts | 64° |
| 2026-05-08 20:34 | 67.01300 | -50.70677 | 180 ft | 23 kts | 60° |
| 2026-05-08 20:34 | 67.01162 | -50.70292 | 182 ft | 25 kts | 211° |
| 2026-05-08 20:35 | 67.01030 | -50.70575 | 178 ft | 14 kts | 241° |
| 2026-05-08 20:35 | 67.00956 | -50.70719 | 175 ft | 13 kts | 175° |
| 2026-05-08 20:35 | 67.00913 | -50.70621 | 176 ft | 4 kts | 161° |
| 2026-05-08 20:35 | 67.00913 | -50.70608 | 176 ft | 0 kts | 258° |
| 2026-05-08 20:36 | 67.00913 | -50.70610 | 176 ft | 0 kts | 272° |